Pagrindinis puslapis
METAR-TAF:

METAR-TAF

Oro uostai :

Užicė, Serbija

platuma: 43-53-56N, ilguma: 19-41-52E, Aukštis: 904 m

Dabartinis oras

Ataskaita buvo paskelbta 18 minutes, ne 18:30 UTC
Vėjas 3 kt iš Šiaurės/Šiaurės Rytų
Temperatūra 9°C
Drėgmė 49%
Slėgis 1025 hPa
Matomumas 10 km arba daugiau
nėra debesų žemiau 1500 m ir nėra kamuolinių lietaus debesų

METAR: LYUZ 191830Z AUTO 03003KT CAVOK 09/M01 Q1025

Laikas: 20:48 (18:48 UTC)

Prognozė

Ataskaita buvo paskelbta 1 valandą ir 48 minutes, ne 17:00 UTC
Prognozė galioja nuo 19 metu 18 UTC su 20 metu 18 UTC
Vėjas 5 kt iš Šiaurės/Šiaurės Rytų
Matomumas 10 km arba daugiau
Su prošvaistėmis ne aukštis 4000 ft

TAF: LYUZ 191700Z 1918/2018 03005KT 9999 BKN040 TX13/2013Z TN05/2004Z

Orai ataskaitas ir orų prognozės (METAR, TAF).

turimą stotys yra geltonos ir raudonos taškus žemėlapyje.

Perkelti pele per norėdami pamatyti stoties vardą.

Tada spustelėkite, norėdami matyti oro stebėjimo ir prognozės.

Norėdami pakeisti žemėlapį: spustelėkite ant žalios mygtukų su juodo kryžiaus žemyn,; žalią mygtuką su brūkšneliu, jei norite nutolinti; arba žalių rodyklių gretimoms žemėlapius.


METAR-TAF: